sensor_id;sensor_type;location;lat;lon;timestamp;temperature;humidity
23540;DHT22;11947;50.810;4.394;2023-05-14T17:37:14;18.50;99.90
23540;DHT22;11947;50.810;4.394;2023-05-14T17:39:40;18.00;99.90
23540;DHT22;11947;50.810;4.394;2023-05-14T17:42:06;17.90;99.90
23540;DHT22;11947;50.810;4.394;2023-05-14T17:44:33;17.90;99.90
23540;DHT22;11947;50.810;4.394;2023-05-14T17:46:59;17.90;99.90
23540;DHT22;11947;50.810;4.394;2023-05-14T17:49:25;17.90;99.90
23540;DHT22;11947;50.810;4.394;2023-05-14T17:51:50;17.90;99.90
23540;DHT22;11947;50.810;4.394;2023-05-14T17:54:16;18.00;99.90
23540;DHT22;11947;50.810;4.394;2023-05-14T17:56:42;18.00;99.90
23540;DHT22;11947;50.810;4.394;2023-05-14T17:59:07;18.00;99.90
23540;DHT22;11947;50.810;4.394;2023-05-14T18:01:33;18.10;99.90
23540;DHT22;11947;50.810;4.394;2023-05-14T18:03:59;18.10;99.90
23540;DHT22;11947;50.810;4.394;2023-05-14T18:06:24;18.10;99.90
23540;DHT22;11947;50.810;4.394;2023-05-14T18:08:50;18.10;99.90
23540;DHT22;11947;50.810;4.394;2023-05-14T18:11:16;18.10;99.90
23540;DHT22;11947;50.810;4.394;2023-05-14T18:13:41;18.00;99.90
23540;DHT22;11947;50.810;4.394;2023-05-14T18:16:07;17.80;99.90
23540;DHT22;11947;50.810;4.394;2023-05-14T18:18:33;17.80;99.90
23540;DHT22;11947;50.810;4.394;2023-05-14T18:20:59;17.80;99.90
23540;DHT22;11947;50.810;4.394;2023-05-14T18:23:24;17.80;99.90
23540;DHT22;11947;50.810;4.394;2023-05-14T18:25:50;17.80;99.90
23540;DHT22;11947;50.810;4.394;2023-05-14T18:28:16;17.80;99.90
23540;DHT22;11947;50.810;4.394;2023-05-14T18:30:45;17.70;99.90
23540;DHT22;11947;50.810;4.394;2023-05-14T18:33:11;17.50;99.90
23540;DHT22;11947;50.810;4.394;2023-05-14T18:35:37;17.60;99.90
23540;DHT22;11947;50.810;4.394;2023-05-14T18:38:03;17.50;99.90
23540;DHT22;11947;50.810;4.394;2023-05-14T18:40:28;17.40;99.90
23540;DHT22;11947;50.810;4.394;2023-05-14T18:42:54;17.40;99.90
23540;DHT22;11947;50.810;4.394;2023-05-14T18:45:21;17.40;99.90
23540;DHT22;11947;50.810;4.394;2023-05-14T18:47:49;17.30;99.90
23540;DHT22;11947;50.810;4.394;2023-05-14T18:50:14;17.20;99.90
23540;DHT22;11947;50.810;4.394;2023-05-14T18:52:40;17.00;99.90
23540;DHT22;11947;50.810;4.394;2023-05-14T18:55:06;17.10;99.90
23540;DHT22;11947;50.810;4.394;2023-05-14T18:57:32;17.20;99.90
23540;DHT22;11947;50.810;4.394;2023-05-14T18:59:59;17.10;99.90
23540;DHT22;11947;50.810;4.394;2023-05-14T19:02:28;17.00;99.90
23540;DHT22;11947;50.810;4.394;2023-05-14T19:04:53;16.90;99.90
23540;DHT22;11947;50.810;4.394;2023-05-14T19:07:20;16.90;99.90
23540;DHT22;11947;50.810;4.394;2023-05-14T19:09:46;16.90;99.90
23540;DHT22;11947;50.810;4.394;2023-05-14T19:12:12;16.80;99.90
23540;DHT22;11947;50.810;4.394;2023-05-14T19:14:37;16.70;99.90
23540;DHT22;11947;50.810;4.394;2023-05-14T19:17:03;16.50;99.90
23540;DHT22;11947;50.810;4.394;2023-05-14T19:19:29;16.40;99.90
23540;DHT22;11947;50.810;4.394;2023-05-14T19:21:55;16.20;99.90
23540;DHT22;11947;50.810;4.394;2023-05-14T19:24:21;16.20;99.90
23540;DHT22;11947;50.810;4.394;2023-05-14T19:26:46;16.10;99.90
23540;DHT22;11947;50.810;4.394;2023-05-14T19:29:12;16.10;99.90
23540;DHT22;11947;50.810;4.394;2023-05-14T19:31:38;15.90;99.90
23540;DHT22;11947;50.810;4.394;2023-05-14T19:34:03;15.70;99.90
23540;DHT22;11947;50.810;4.394;2023-05-14T19:36:29;15.60;99.90
23540;DHT22;11947;50.810;4.394;2023-05-14T19:38:56;15.70;99.90
23540;DHT22;11947;50.810;4.394;2023-05-14T19:41:22;15.70;99.90
23540;DHT22;11947;50.810;4.394;2023-05-14T19:43:47;15.70;99.90
23540;DHT22;11947;50.810;4.394;2023-05-14T19:46:13;15.60;99.90
23540;DHT22;11947;50.810;4.394;2023-05-14T19:48:39;15.60;99.90
23540;DHT22;11947;50.810;4.394;2023-05-14T19:51:08;15.60;99.90
23540;DHT22;11947;50.810;4.394;2023-05-14T19:53:35;15.60;99.90
23540;DHT22;11947;50.810;4.394;2023-05-14T19:56:00;15.60;99.90
23540;DHT22;11947;50.810;4.394;2023-05-14T19:58:26;15.50;99.90
23540;DHT22;11947;50.810;4.394;2023-05-14T20:00:52;15.40;99.90
23540;DHT22;11947;50.810;4.394;2023-05-14T20:03:22;15.30;99.90
23540;DHT22;11947;50.810;4.394;2023-05-14T20:05:50;15.20;99.90
23540;DHT22;11947;50.810;4.394;2023-05-14T20:08:17;15.10;99.90
23540;DHT22;11947;50.810;4.394;2023-05-14T20:10:43;15.00;99.90
23540;DHT22;11947;50.810;4.394;2023-05-14T20:13:09;14.90;99.90
23540;DHT22;11947;50.810;4.394;2023-05-14T20:15:35;14.90;99.90
23540;DHT22;11947;50.810;4.394;2023-05-14T20:18:00;14.90;99.90
23540;DHT22;11947;50.810;4.394;2023-05-14T20:20:29;15.00;99.90
23540;DHT22;11947;50.810;4.394;2023-05-14T20:23:01;15.00;99.90
23540;DHT22;11947;50.810;4.394;2023-05-14T20:25:27;15.00;99.90
23540;DHT22;11947;50.810;4.394;2023-05-14T20:27:52;15.00;99.90
23540;DHT22;11947;50.810;4.394;2023-05-14T20:30:18;15.00;99.90
23540;DHT22;11947;50.810;4.394;2023-05-14T20:32:47;14.90;99.90
23540;DHT22;11947;50.810;4.394;2023-05-14T20:35:12;14.80;99.90
23540;DHT22;11947;50.810;4.394;2023-05-14T20:37:38;14.80;99.90
23540;DHT22;11947;50.810;4.394;2023-05-14T20:40:04;14.80;99.90
23540;DHT22;11947;50.810;4.394;2023-05-14T20:42:30;14.80;99.90
23540;DHT22;11947;50.810;4.394;2023-05-14T20:44:56;14.80;99.90
23540;DHT22;11947;50.810;4.394;2023-05-14T20:47:24;14.90;99.90
23540;DHT22;11947;50.810;4.394;2023-05-14T20:49:53;14.90;99.90
23540;DHT22;11947;50.810;4.394;2023-05-14T20:52:19;14.70;99.90
23540;DHT22;11947;50.810;4.394;2023-05-14T20:54:45;14.60;99.90
23540;DHT22;11947;50.810;4.394;2023-05-14T20:57:13;14.60;99.90
23540;DHT22;11947;50.810;4.394;2023-05-14T20:59:40;14.60;99.90
23540;DHT22;11947;50.810;4.394;2023-05-14T21:02:06;14.50;99.90
23540;DHT22;11947;50.810;4.394;2023-05-14T21:04:32;14.50;99.90
23540;DHT22;11947;50.810;4.394;2023-05-14T21:06:58;14.40;99.90
23540;DHT22;11947;50.810;4.394;2023-05-14T21:09:24;14.40;99.90
23540;DHT22;11947;50.810;4.394;2023-05-14T21:11:51;14.40;99.90
23540;DHT22;11947;50.810;4.394;2023-05-14T21:14:17;14.40;99.90
23540;DHT22;11947;50.810;4.394;2023-05-14T21:16:43;14.40;99.90
23540;DHT22;11947;50.810;4.394;2023-05-14T21:19:09;14.40;99.90
23540;DHT22;11947;50.810;4.394;2023-05-14T21:21:35;14.50;99.90
23540;DHT22;11947;50.810;4.394;2023-05-14T21:24:00;14.50;99.90
23540;DHT22;11947;50.810;4.394;2023-05-14T21:26:29;14.50;99.90
23540;DHT22;11947;50.810;4.394;2023-05-14T21:28:55;14.50;99.90
23540;DHT22;11947;50.810;4.394;2023-05-14T21:31:21;14.50;99.90
23540;DHT22;11947;50.810;4.394;2023-05-14T21:33:47;14.30;99.90
23540;DHT22;11947;50.810;4.394;2023-05-14T21:36:12;14.20;99.90
23540;DHT22;11947;50.810;4.394;2023-05-14T21:38:38;14.30;99.90
23540;DHT22;11947;50.810;4.394;2023-05-14T21:41:04;14.30;99.90
23540;DHT22;11947;50.810;4.394;2023-05-14T21:43:30;14.40;99.90
23540;DHT22;11947;50.810;4.394;2023-05-14T21:45:55;14.40;99.90
23540;DHT22;11947;50.810;4.394;2023-05-14T21:48:21;14.20;99.90
23540;DHT22;11947;50.810;4.394;2023-05-14T21:50:46;14.10;99.90
23540;DHT22;11947;50.810;4.394;2023-05-14T21:53:12;14.00;99.90
23540;DHT22;11947;50.810;4.394;2023-05-14T21:55:38;13.90;99.90
23540;DHT22;11947;50.810;4.394;2023-05-14T21:58:05;13.80;99.90
23540;DHT22;11947;50.810;4.394;2023-05-14T22:00:31;13.80;99.90
23540;DHT22;11947;50.810;4.394;2023-05-14T22:02:57;13.80;99.90
23540;DHT22;11947;50.810;4.394;2023-05-14T22:05:23;13.80;99.90
23540;DHT22;11947;50.810;4.394;2023-05-14T22:07:48;13.70;99.90
23540;DHT22;11947;50.810;4.394;2023-05-14T22:10:15;13.70;99.90
23540;DHT22;11947;50.810;4.394;2023-05-14T22:12:42;13.70;99.90
23540;DHT22;11947;50.810;4.394;2023-05-14T22:15:08;13.60;99.90
23540;DHT22;11947;50.810;4.394;2023-05-14T22:17:34;13.50;99.90
23540;DHT22;11947;50.810;4.394;2023-05-14T22:20:04;13.50;99.90
23540;DHT22;11947;50.810;4.394;2023-05-14T22:22:37;13.40;99.90
23540;DHT22;11947;50.810;4.394;2023-05-14T22:25:03;13.50;99.90
23540;DHT22;11947;50.810;4.394;2023-05-14T22:27:30;13.60;99.90
23540;DHT22;11947;50.810;4.394;2023-05-14T22:29:56;13.50;99.90
23540;DHT22;11947;50.810;4.394;2023-05-14T22:32:22;13.40;99.90
23540;DHT22;11947;50.810;4.394;2023-05-14T22:34:48;13.20;99.90
23540;DHT22;11947;50.810;4.394;2023-05-14T22:37:14;13.20;99.90
23540;DHT22;11947;50.810;4.394;2023-05-14T22:39:40;13.20;99.90
23540;DHT22;11947;50.810;4.394;2023-05-14T22:42:06;13.20;99.90
23540;DHT22;11947;50.810;4.394;2023-05-14T22:44:32;13.20;99.90
23540;DHT22;11947;50.810;4.394;2023-05-14T22:46:57;13.30;99.90
23540;DHT22;11947;50.810;4.394;2023-05-14T22:49:24;13.30;99.90
23540;DHT22;11947;50.810;4.394;2023-05-14T22:51:50;13.30;99.90
23540;DHT22;11947;50.810;4.394;2023-05-14T22:54:18;13.10;99.90
23540;DHT22;11947;50.810;4.394;2023-05-14T22:56:44;13.10;99.90
23540;DHT22;11947;50.810;4.394;2023-05-14T22:59:10;13.10;99.90
23540;DHT22;11947;50.810;4.394;2023-05-14T23:01:35;13.00;99.90
23540;DHT22;11947;50.810;4.394;2023-05-14T23:04:01;13.00;99.90
23540;DHT22;11947;50.810;4.394;2023-05-14T23:06:28;13.00;99.90
23540;DHT22;11947;50.810;4.394;2023-05-14T23:08:54;13.00;99.90
23540;DHT22;11947;50.810;4.394;2023-05-14T23:11:20;13.00;99.90
23540;DHT22;11947;50.810;4.394;2023-05-14T23:13:45;12.80;99.90
23540;DHT22;11947;50.810;4.394;2023-05-14T23:16:11;12.70;99.90
23540;DHT22;11947;50.810;4.394;2023-05-14T23:18:37;12.70;99.90
23540;DHT22;11947;50.810;4.394;2023-05-14T23:21:03;12.60;99.90
23540;DHT22;11947;50.810;4.394;2023-05-14T23:23:28;12.60;99.90
23540;DHT22;11947;50.810;4.394;2023-05-14T23:25:57;12.70;99.90
23540;DHT22;11947;50.810;4.394;2023-05-14T23:28:23;12.70;99.90
23540;DHT22;11947;50.810;4.394;2023-05-14T23:30:48;12.60;99.90
23540;DHT22;11947;50.810;4.394;2023-05-14T23:33:14;12.50;99.90
23540;DHT22;11947;50.810;4.394;2023-05-14T23:35:40;12.40;99.90
23540;DHT22;11947;50.810;4.394;2023-05-14T23:38:06;12.40;99.90
23540;DHT22;11947;50.810;4.394;2023-05-14T23:40:32;12.40;99.90
23540;DHT22;11947;50.810;4.394;2023-05-14T23:42:58;12.40;99.90
23540;DHT22;11947;50.810;4.394;2023-05-14T23:45:25;12.40;99.90
23540;DHT22;11947;50.810;4.394;2023-05-14T23:47:52;12.40;99.90
23540;DHT22;11947;50.810;4.394;2023-05-14T23:50:18;12.30;99.90
23540;DHT22;11947;50.810;4.394;2023-05-14T23:52:44;12.40;99.90
23540;DHT22;11947;50.810;4.394;2023-05-14T23:55:09;12.40;99.90
23540;DHT22;11947;50.810;4.394;2023-05-14T23:57:35;12.40;99.90
